Time;durP1;ratioP1;P1;durP2;ratioP2;P2;SDS_P1;SDS_P2;PMS_P1;PMS_P2;Temp;Humidity;BMP_temperature;BMP_pressure;BME280_temperature;BME280_humidity;BME280_pressure;Samples;Min_cycle;Max_cycle;Signal;HPM_P1;HPM_P2
2023/07/25 00:01:01;;;;;;;8.43;2.95;;;;;;;14.96;100.00;100606.16;4950426;28;20560;-69
2023/07/25 00:03:27;;;;;;;4.35;2.53;;;;;;;15.00;100.00;100597.69;4922760;28;20059;-71
2023/07/25 00:05:54;;;;;;;9.02;2.72;;;;;;;15.00;100.00;100595.03;4944227;29;20062;-68
2023/07/25 00:08:20;;;;;;;10.85;2.55;;;;;;;15.00;100.00;100586.31;4954417;28;20055;-69
2023/07/25 00:10:47;;;;;;;7.75;2.53;;;;;;;14.99;100.00;100595.22;4941327;29;20142;-68
2023/07/25 00:13:13;;;;;;;4.47;2.20;;;;;;;15.00;100.00;100594.22;4950052;29;20102;-69
2023/07/25 00:15:40;;;;;;;6.82;2.40;;;;;;;14.97;100.00;100597.22;4941798;29;20059;-68
2023/07/25 00:18:06;;;;;;;5.70;2.42;;;;;;;14.96;100.00;100598.22;4929337;28;20642;-70
2023/07/25 00:20:33;;;;;;;3.88;2.17;;;;;;;14.92;100.00;100602.22;4942364;29;20138;-69
2023/07/25 00:22:59;;;;;;;6.88;2.20;;;;;;;14.90;100.00;100599.78;4931295;29;20051;-69
2023/07/25 00:25:26;;;;;;;8.80;2.40;;;;;;;14.87;100.00;100597.47;4922818;29;20062;-69
2023/07/25 00:27:52;;;;;;;8.20;2.78;;;;;;;14.85;100.00;100594.19;4930283;29;20051;-69
2023/07/25 00:30:19;;;;;;;8.15;2.50;;;;;;;14.83;100.00;100594.38;4940119;29;20062;-69
2023/07/25 00:32:45;;;;;;;6.70;2.58;;;;;;;14.81;100.00;100600.84;4935469;28;20082;-69
2023/07/25 00:35:12;;;;;;;9.50;2.65;;;;;;;14.78;100.00;100594.09;4943588;29;20051;-69
2023/07/25 00:37:38;;;;;;;10.95;2.67;;;;;;;14.75;100.00;100599.72;4944877;28;20055;-68
2023/07/25 00:40:05;;;;;;;9.50;3.03;;;;;;;14.72;100.00;100601.91;4944824;29;20474;-69
2023/07/25 00:42:32;;;;;;;5.97;2.38;;;;;;;14.64;100.00;100597.50;4948588;29;20082;-69
2023/07/25 00:44:58;;;;;;;7.95;2.53;;;;;;;14.58;100.00;100607.00;4934743;28;20051;-69
2023/07/25 00:47:25;;;;;;;8.85;2.78;;;;;;;14.58;100.00;100604.34;4944887;29;20575;-68
2023/07/25 00:49:52;;;;;;;6.20;2.47;;;;;;;14.56;100.00;100614.28;4939989;28;20135;-68
2023/07/25 00:52:19;;;;;;;5.93;2.45;;;;;;;14.53;100.00;100611.94;4943197;28;20043;-68
2023/07/25 00:54:50;;;;;;;6.63;2.67;;;;;;;14.52;100.00;100610.28;4945471;28;20051;-69
2023/07/25 00:57:18;;;;;;;5.47;2.63;;;;;;;14.46;100.00;100608.34;4944610;29;20051;-68
2023/07/25 00:59:46;;;;;;;5.88;2.47;;;;;;;14.43;100.00;100608.72;4944044;29;20055;-70
2023/07/25 01:02:14;;;;;;;15.05;3.05;;;;;;;14.41;100.00;100606.25;4937244;29;20050;-69
2023/07/25 01:04:41;;;;;;;5.80;2.58;;;;;;;14.42;100.00;100610.53;4944662;29;20134;-72
2023/07/25 01:07:08;;;;;;;8.18;3.22;;;;;;;14.42;100.00;100604.44;4941580;28;20265;-71
2023/07/25 01:09:40;;;;;;;10.15;2.80;;;;;;;14.40;100.00;100601.97;4946572;29;20091;-70
2023/07/25 01:12:09;;;;;;;5.53;2.22;;;;;;;14.39;100.00;100600.34;4923219;29;21259;-69
2023/07/25 01:14:36;;;;;;;;;;;;;;;14.36;100.00;100611.22;4938402;29;20056;-71
2023/07/25 01:17:12;;;;;;;6.93;2.10;;;;;;;14.37;100.00;100602.34;4952614;28;19926;-70
2023/07/25 01:19:41;;;;;;;5.65;2.42;;;;;;;14.33;100.00;100595.78;4941216;28;20050;-71
2023/07/25 01:22:08;;;;;;;5.63;2.22;;;;;;;14.35;100.00;100595.59;4943047;29;20108;-70
2023/07/25 01:24:36;;;;;;;9.73;2.35;;;;;;;14.34;100.00;100599.22;4941368;28;20146;-71
2023/07/25 01:27:02;;;;;;;4.00;1.77;;;;;;;14.29;100.00;100598.91;4946271;29;20054;-73
2023/07/25 01:29:29;;;;;;;7.80;2.13;;;;;;;14.25;100.00;100601.13;4937513;28;20556;-72
2023/07/25 01:31:55;;;;;;;8.38;2.65;;;;;;;14.16;100.00;100596.88;4942729;29;20135;-70
2023/07/25 01:34:22;;;;;;;7.43;2.60;;;;;;;14.18;100.00;100594.88;4948604;29;20456;-70
2023/07/25 01:36:48;;;;;;;6.88;2.33;;;;;;;14.18;100.00;100600.16;4941171;29;20062;-70
2023/07/25 01:39:15;;;;;;;8.15;2.70;;;;;;;14.13;100.00;100598.06;4939608;28;20142;-69
2023/07/25 01:41:43;;;;;;;7.28;2.45;;;;;;;14.14;100.00;100593.59;4937332;28;20059;-70
2023/07/25 01:44:10;;;;;;;7.30;2.47;;;;;;;14.16;100.00;100602.16;4942876;29;20771;-70
2023/07/25 01:46:39;;;;;;;7.13;2.53;;;;;;;14.14;100.00;100590.97;4944203;29;20142;-70
2023/07/25 01:49:06;;;;;;;6.60;2.40;;;;;;;14.15;100.00;100588.16;4946615;28;20051;-70
2023/07/25 01:51:32;;;;;;;6.07;2.50;;;;;;;14.14;100.00;100589.13;4949001;29;20118;-70
2023/07/25 01:53:59;;;;;;;6.05;2.40;;;;;;;14.13;100.00;100591.94;4938390;28;20130;-69
2023/07/25 01:56:25;;;;;;;10.52;2.97;;;;;;;14.11;100.00;100592.09;4922358;29;20062;-69
2023/07/25 01:58:52;;;;;;;7.95;2.88;;;;;;;14.09;100.00;100588.81;4941272;29;20465;-70
2023/07/25 02:01:19;;;;;;;8.80;2.85;;;;;;;14.07;100.00;100584.72;4948247;29;20054;-70
2023/07/25 02:03:45;;;;;;;6.07;2.90;;;;;;;14.04;100.00;100584.09;4944888;28;20106;-70
2023/07/25 02:06:12;;;;;;;7.82;3.03;;;;;;;14.03;100.00;100576.34;4946784;29;20173;-70
2023/07/25 02:08:38;;;;;;;7.50;2.55;;;;;;;13.99;100.00;100581.13;4944010;29;20049;-70
2023/07/25 02:11:05;;;;;;;8.30;2.72;;;;;;;14.02;100.00;100580.00;4936722;28;20138;-70
2023/07/25 02:13:31;;;;;;;6.53;2.47;;;;;;;13.98;100.00;100581.34;4949395;29;20090;-70
2023/07/25 02:15:58;;;;;;;6.00;2.60;;;;;;;13.96;100.00;100581.50;4941797;29;20110;-70
2023/07/25 02:18:24;;;;;;;5.20;2.60;;;;;;;13.91;100.00;100569.84;4933161;29;20361;-70
2023/07/25 02:20:51;;;;;;;7.15;2.88;;;;;;;13.93;100.00;100573.94;4942564;28;20119;-65
2023/07/25 02:23:17;;;;;;;6.70;2.55;;;;;;;13.89;100.00;100562.09;4935205;28;20493;-67
2023/07/25 02:25:46;;;;;;;7.95;2.53;;;;;;;13.89;100.00;100567.38;4934765;29;20048;-67
2023/07/25 02:28:12;;;;;;;6.40;3.00;;;;;;;13.83;100.00;100566.25;4924692;29;20837;-67
2023/07/25 02:30:38;;;;;;;6.88;3.13;;;;;;;13.79;100.00;100570.22;4930921;29;20059;-68
2023/07/25 02:33:05;;;;;;;10.98;2.83;;;;;;;13.75;100.00;100562.84;4930359;29;20043;-66
2023/07/25 02:35:32;;;;;;;9.40;3.13;;;;;;;13.67;100.00;100561.06;4945109;28;20051;-68
2023/07/25 02:37:58;;;;;;;8.55;3.25;;;;;;;13.66;100.00;100564.69;4938910;28;20094;-67
2023/07/25 02:40:25;;;;;;;6.63;2.67;;;;;;;13.63;100.00;100559.78;4938131;29;20121;-66
2023/07/25 02:42:51;;;;;;;6.38;2.90;;;;;;;13.57;100.00;100563.13;4942135;29;20138;-67
2023/07/25 02:45:18;;;;;;;7.13;3.13;;;;;;;13.56;100.00;100566.72;4935480;28;20059;-67
2023/07/25 02:47:44;;;;;;;13.63;3.15;;;;;;;13.53;100.00;100567.91;4931468;29;20087;-67
2023/07/25 02:50:11;;;;;;;7.03;2.78;;;;;;;13.55;100.00;100570.38;4932548;28;20527;-67
2023/07/25 02:52:37;;;;;;;10.68;3.17;;;;;;;13.57;100.00;100571.03;4941213;29;20405;-67
2023/07/25 02:55:05;;;;;;;7.15;3.22;;;;;;;13.57;100.00;100577.09;4939392;29;20133;-66
2023/07/25 02:57:31;;;;;;;6.60;3.43;;;;;;;13.56;100.00;100564.09;4935778;28;20748;-66
2023/07/25 02:59:58;;;;;;;11.43;3.78;;;;;;;13.53;100.00;100567.91;4947986;29;20483;-67
2023/07/25 03:02:24;;;;;;;5.47;2.95;;;;;;;13.52;100.00;100571.50;4927963;29;20079;-66
2023/07/25 03:04:51;;;;;;;6.38;3.25;;;;;;;13.54;100.00;100573.97;4934609;28;20055;-66
2023/07/25 03:07:17;;;;;;;8.05;3.63;;;;;;;13.52;100.00;100571.50;4938175;28;20051;-67
2023/07/25 03:09:44;;;;;;;8.63;3.65;;;;;;;13.47;100.00;100567.78;4939559;29;20576;-66
2023/07/25 03:12:10;;;;;;;5.80;3.10;;;;;;;13.46;100.00;100577.47;4934065;29;20481;-67
2023/07/25 03:14:36;;;;;;;6.25;3.15;;;;;;;13.43;100.00;100569.94;4934187;29;20060;-66
2023/07/25 03:17:03;;;;;;;6.63;3.72;;;;;;;13.39;100.00;100568.63;4932646;28;20058;-66
2023/07/25 03:19:30;;;;;;;4.68;3.08;;;;;;;13.36;100.00;100571.59;4933925;28;20130;-66
2023/07/25 03:21:56;;;;;;;7.75;3.95;;;;;;;13.33;100.00;100575.41;4947085;29;20082;-66
2023/07/25 03:24:23;;;;;;;6.70;3.33;;;;;;;13.31;100.00;100573.91;4942451;28;20067;-66
2023/07/25 03:26:49;;;;;;;4.90;3.38;;;;;;;13.35;100.00;100583.94;4944105;29;20106;-67
2023/07/25 03:29:15;;;;;;;6.32;3.63;;;;;;;13.32;100.00;100579.00;4941202;29;20062;-67
2023/07/25 03:31:42;;;;;;;7.63;3.70;;;;;;;13.36;100.00;100582.13;4943008;28;20051;-67
2023/07/25 03:34:08;;;;;;;7.40;3.90;;;;;;;13.36;100.00;100579.50;4945773;28;20051;-66
2023/07/25 03:36:35;;;;;;;8.07;4.25;;;;;;;13.39;100.00;100587.88;4938314;29;20556;-66
2023/07/25 03:39:02;;;;;;;6.20;3.28;;;;;;;13.35;100.00;100573.41;4948616;29;20563;-66
2023/07/25 03:41:29;;;;;;;9.40;3.75;;;;;;;13.34;100.00;100584.13;4945169;28;20055;-67
2023/07/25 03:43:55;;;;;;;6.85;3.60;;;;;;;13.28;100.00;100576.88;4944541;29;20151;-66
2023/07/25 03:46:22;;;;;;;8.48;3.60;;;;;;;13.26;100.00;100584.94;4936254;28;20141;-66
2023/07/25 03:48:48;;;;;;;7.75;3.75;;;;;;;13.22;100.00;100579.19;4942322;29;20051;-66
2023/07/25 03:51:15;;;;;;;7.32;3.80;;;;;;;13.18;100.00;100571.78;4951860;29;20165;-67
2023/07/25 03:53:41;;;;;;;6.63;4.15;;;;;;;13.19;100.00;100576.06;4929787;29;20047;-66
2023/07/25 03:56:08;;;;;;;10.48;4.13;;;;;;;13.21;100.00;100574.91;4949223;28;20744;-66
2023/07/25 03:58:34;;;;;;;6.65;3.47;;;;;;;13.21;100.00;100572.28;4936932;29;20146;-66
2023/07/25 04:01:01;;;;;;;14.88;4.43;;;;;;;13.19;100.00;100563.72;4939047;28;20178;-66
2023/07/25 04:03:27;;;;;;;9.00;4.30;;;;;;;13.22;100.00;100562.56;4937705;29;20757;-67
2023/07/25 04:05:54;;;;;;;8.55;3.70;;;;;;;13.21;100.00;100567.00;4947354;29;20050;-66
2023/07/25 04:08:20;;;;;;;5.65;3.70;;;;;;;13.21;100.00;100567.00;4950953;29;20085;-67
2023/07/25 04:10:47;;;;;;;8.30;3.63;;;;;;;13.24;100.00;100571.91;4942128;28;20051;-66
2023/07/25 04:13:13;;;;;;;5.65;3.47;;;;;;;13.20;100.00;100570.63;4947154;29;20110;-66
2023/07/25 04:15:40;;;;;;;8.82;3.83;;;;;;;13.18;100.00;100575.25;4939719;29;20054;-67
2023/07/25 04:18:06;;;;;;;8.55;4.35;;;;;;;13.15;100.00;100574.75;4922311;29;20456;-66
2023/07/25 04:20:33;;;;;;;10.57;4.57;;;;;;;13.14;100.00;100581.84;4938682;29;20051;-66
2023/07/25 04:23:00;;;;;;;7.90;4.20;;;;;;;13.15;100.00;100570.31;4946889;29;20145;-67
2023/07/25 04:25:26;;;;;;;11.70;4.95;;;;;;;13.17;100.00;100568.34;4942365;28;20579;-66
2023/07/25 04:27:53;;;;;;;9.70;4.28;;;;;;;13.19;100.00;100566.38;4934495;28;20508;-67
2023/07/25 04:30:19;;;;;;;8.13;4.20;;;;;;;13.20;100.00;100560.09;4941294;28;20051;-67
2023/07/25 04:32:46;;;;;;;7.78;3.65;;;;;;;13.20;100.00;100554.00;4925115;29;20099;-67
2023/07/25 04:35:12;;;;;;;9.88;3.90;;;;;;;13.20;100.00;100554.81;4939801;29;20576;-66
2023/07/25 04:37:39;;;;;;;8.38;4.18;;;;;;;13.21;100.00;100558.25;4939748;29;20121;-66
2023/07/25 04:40:06;;;;;;;6.13;3.72;;;;;;;13.21;100.00;100561.75;4953740;28;20097;-69
2023/07/25 04:42:32;;;;;;;8.20;4.30;;;;;;;13.19;100.00;100561.09;4945185;28;20088;-66
2023/07/25 04:44:59;;;;;;;7.15;4.22;;;;;;;13.19;100.00;100561.09;4945723;29;20051;-67
2023/07/25 04:47:26;;;;;;;7.80;4.05;;;;;;;13.19;100.00;100569.00;4929279;29;20066;-66
2023/07/25 04:49:52;;;;;;;10.27;4.22;;;;;;;13.21;100.00;100569.66;4931182;28;20480;-66
2023/07/25 04:52:19;;;;;;;9.10;4.13;;;;;;;13.25;100.00;100578.03;4945550;29;20561;-66
2023/07/25 04:54:45;;;;;;;9.27;4.03;;;;;;;13.28;100.00;100571.59;4937182;29;20050;-66
2023/07/25 04:57:11;;;;;;;6.57;3.90;;;;;;;13.30;100.00;100586.25;4946408;28;20133;-66
2023/07/25 04:59:38;;;;;;;14.25;4.22;;;;;;;13.30;100.00;100581.00;4939372;29;20126;-68
2023/07/25 05:02:04;;;;;;;7.45;3.88;;;;;;;13.30;100.00;100585.44;4943177;29;20145;-68
2023/07/25 05:04:31;;;;;;;8.52;4.07;;;;;;;13.31;100.00;100582.66;4945473;29;20066;-68
2023/07/25 05:06:57;;;;;;;9.60;4.05;;;;;;;13.30;100.00;100581.00;4916612;29;20090;-68
2023/07/25 05:09:24;;;;;;;8.23;4.07;;;;;;;13.36;100.00;100579.50;4940173;29;20134;-67
2023/07/25 05:11:53;;;;;;;6.97;4.00;;;;;;;13.35;100.00;100578.69;4939547;29;20698;-67
2023/07/25 05:14:20;;;;;;;9.90;4.18;;;;;;;13.40;100.00;100586.88;4939282;29;20139;-67
2023/07/25 05:16:46;;;;;;;9.10;4.30;;;;;;;13.44;100.00;100587.38;4938946;28;20497;-65
2023/07/25 05:19:13;;;;;;;8.40;4.22;;;;;;;13.50;100.00;100591.94;4945265;28;20163;-66
2023/07/25 05:21:39;;;;;;;6.70;4.57;;;;;;;13.56;100.00;100590.44;4946938;29;20058;-68
2023/07/25 05:24:06;;;;;;;8.48;4.30;;;;;;;13.62;100.00;100590.59;4942761;29;20066;-67
2023/07/25 05:26:32;;;;;;;8.82;4.53;;;;;;;13.73;100.00;100586.75;4941125;28;20560;-68
2023/07/25 05:28:59;;;;;;;6.50;4.55;;;;;;;13.76;100.00;100586.41;4933739;29;20134;-67
2023/07/25 05:31:25;;;;;;;7.38;4.15;;;;;;;13.84;100.00;100581.09;4940448;29;20058;-67
2023/07/25 05:33:51;;;;;;;7.32;3.78;;;;;;;13.91;100.00;100581.19;4937879;29;20098;-67
2023/07/25 05:36:18;;;;;;;8.75;3.80;;;;;;;13.99;100.00;100589.06;4946774;29;20141;-68
2023/07/25 05:38:44;;;;;;;9.50;3.88;;;;;;;14.02;100.00;100590.53;4945967;29;20106;-67
2023/07/25 05:41:11;;;;;;;9.00;3.78;;;;;;;14.10;100.00;100585.22;4938413;28;20051;-67
2023/07/25 05:43:37;;;;;;;13.25;4.25;;;;;;;14.18;100.00;100587.78;4944907;29;20055;-66
2023/07/25 05:46:04;;;;;;;5.50;3.47;;;;;;;14.23;100.00;100584.63;4937133;29;20051;-67
2023/07/25 05:48:31;;;;;;;11.95;3.05;;;;;;;14.25;100.00;100580.00;4948044;29;20508;-67
2023/07/25 05:50:57;;;;;;;7.45;3.08;;;;;;;14.22;100.00;100575.06;4935142;29;20645;-67
2023/07/25 05:53:24;;;;;;;12.25;3.60;;;;;;;14.31;100.00;100579.28;4936995;29;20114;-67
2023/07/25 05:55:50;;;;;;;10.00;3.10;;;;;;;14.41;100.00;100592.25;4942087;29;20055;-66
2023/07/25 05:58:17;;;;;;;8.52;3.15;;;;;;;14.45;100.00;100588.25;4936310;28;20275;-67
2023/07/25 06:00:44;;;;;;;7.47;3.10;;;;;;;14.52;100.00;100583.88;4946044;29;20135;-67
2023/07/25 06:03:13;;;;;;;6.93;2.60;;;;;;;14.60;100.00;100583.03;4943011;29;20055;-66
2023/07/25 06:05:40;;;;;;;8.75;3.00;;;;;;;14.70;100.00;100585.41;4943933;29;20055;-68
2023/07/25 06:08:08;;;;;;;8.38;2.72;;;;;;;14.75;100.00;100581.25;4934145;28;20070;-67
2023/07/25 06:10:35;;;;;;;10.07;2.97;;;;;;;14.88;100.00;100590.38;4931611;29;20133;-67
2023/07/25 06:13:06;;;;;;;7.60;2.58;;;;;;;14.95;100.00;100589.47;4938505;29;20047;-67
2023/07/25 06:15:36;;;;;;;5.00;2.40;;;;;;;15.01;100.00;100583.47;4937385;29;20059;-67
2023/07/25 06:18:06;;;;;;;10.93;2.70;;;;;;;15.01;100.00;100594.06;4938943;29;20145;-66
2023/07/25 06:20:33;;;;;;;12.88;2.30;;;;;;;15.03;100.00;100592.03;4933146;29;20480;-67
2023/07/25 06:23:00;;;;;;;8.55;2.40;;;;;;;15.09;100.00;100608.16;4947089;28;20059;-67
2023/07/25 06:25:27;;;;;;;8.07;2.28;;;;;;;15.10;100.00;100599.25;4935297;28;20141;-68
2023/07/25 06:27:54;;;;;;;9.48;3.42;;;;;;;15.11;100.00;100595.59;4941587;29;20059;-67
2023/07/25 06:30:20;;;;;;;5.80;2.00;;;;;;;15.11;100.00;100592.94;4937035;28;20067;-67
2023/07/25 06:32:47;;;;;;;9.50;2.75;;;;;;;15.13;100.00;100599.72;4926272;29;20063;-66
2023/07/25 06:35:13;;;;;;;6.88;2.17;;;;;;;15.11;100.00;100603.50;4946038;29;20043;-66
2023/07/25 06:37:40;;;;;;;7.35;2.28;;;;;;;15.06;100.00;100606.69;4926835;28;20485;-66
2023/07/25 06:40:07;;;;;;;11.13;2.50;;;;;;;15.11;100.00;100609.63;4928498;29;20047;-65
2023/07/25 06:42:34;;;;;;;6.75;2.30;;;;;;;15.13;100.00;100618.19;4927450;29;20495;-65
2023/07/25 06:45:00;;;;;;;8.20;2.50;;;;;;;15.15;100.00;100618.00;4937304;29;20061;-65
2023/07/25 06:47:27;;;;;;;7.63;2.67;;;;;;;15.18;100.00;100612.34;4947817;28;20532;-67
2023/07/25 06:49:53;;;;;;;7.05;2.45;;;;;;;15.24;100.00;100616.91;4941782;28;20125;-66
2023/07/25 06:52:20;;;;;;;12.95;2.50;;;;;;;15.29;100.00;100611.91;4937970;29;20063;-66
2023/07/25 06:54:46;;;;;;;5.07;2.40;;;;;;;15.44;100.00;100617.19;4932122;29;20059;-68
2023/07/25 06:57:13;;;;;;;7.72;2.58;;;;;;;15.57;100.00;100611.25;4940973;28;20056;-67
2023/07/25 06:59:39;;;;;;;10.07;3.13;;;;;;;15.59;100.00;100601.31;4929704;29;20095;-67
2023/07/25 07:02:06;;;;;;;7.97;2.92;;;;;;;15.61;100.00;100607.25;4934797;29;20110;-66
2023/07/25 07:04:32;;;;;;;7.22;2.85;;;;;;;15.69;100.00;100609.78;4934826;29;20055;-66
2023/07/25 07:06:59;;;;;;;6.45;2.85;;;;;;;15.80;100.00;100601.41;4928140;28;20083;-68
2023/07/25 07:09:25;;;;;;;7.28;2.30;;;;;;;15.91;100.00;100612.50;4934271;29;20193;-66
2023/07/25 07:11:51;;;;;;;6.82;2.33;;;;;;;15.95;100.00;100611.91;4942554;29;20059;-67
2023/07/25 07:14:18;;;;;;;7.05;1.98;;;;;;;15.99;100.00;100613.22;4947859;29;20066;-67
2023/07/25 07:16:44;;;;;;;8.02;1.90;;;;;;;15.97;100.00;100617.84;4939116;28;20051;-65
2023/07/25 07:19:11;;;;;;;5.72;2.10;;;;;;;15.90;100.00;100616.97;4943238;28;20051;-66
2023/07/25 07:21:37;;;;;;;7.38;2.20;;;;;;;15.93;100.00;100616.59;4930115;29;20082;-66
2023/07/25 07:24:04;;;;;;;5.10;1.90;;;;;;;15.92;100.00;100619.44;4935090;28;20504;-66
2023/07/25 07:26:30;;;;;;;5.15;1.50;;;;;;;16.02;100.00;100625.25;4942011;29;20090;-66
2023/07/25 07:28:59;;;;;;;5.05;1.80;;;;;;;16.11;100.00;100618.00;4939147;28;20177;-66
2023/07/25 07:31:26;;;;;;;7.57;1.45;;;;;;;16.20;100.00;100622.16;4939679;29;20078;-66
2023/07/25 07:33:52;;;;;;;6.03;1.50;;;;;;;16.32;100.00;100625.94;4930483;29;20059;-66
2023/07/25 07:36:19;;;;;;;3.80;1.48;;;;;;;16.44;100.00;100623.59;4944915;28;20074;-66
2023/07/25 07:38:45;;;;;;;5.05;1.33;;;;;;;16.56;100.00;100626.56;4939925;29;20062;-66
2023/07/25 07:41:11;;;;;;;7.20;1.80;;;;;;;16.68;100.00;100625.06;4936900;29;20043;-66
2023/07/25 07:43:38;;;;;;;7.85;1.55;;;;;;;16.80;100.00;100628.00;4925209;28;20216;-67
2023/07/25 07:46:04;;;;;;;6.85;1.40;;;;;;;16.96;100.00;100625.09;4938794;28;20147;-67
2023/07/25 07:48:31;;;;;;;6.55;1.50;;;;;;;17.07;100.00;100631.72;4934260;29;20107;-67
2023/07/25 07:51:02;;;;;;;6.20;1.20;;;;;;;17.19;100.00;100635.44;4935723;28;20055;-67
2023/07/25 07:53:28;;;;;;;4.95;0.98;;;;;;;17.29;100.00;100644.84;4946283;29;20079;-68
2023/07/25 07:55:55;;;;;;;4.03;1.42;;;;;;;17.40;100.00;100649.63;4944858;29;20520;-67
2023/07/25 07:58:21;;;;;;;4.55;1.20;;;;;;;17.55;100.00;100644.22;4938015;28;20059;-67
2023/07/25 08:00:48;;;;;;;7.00;1.20;;;;;;;17.59;100.00;100646.25;4945221;29;20142;-67
2023/07/25 08:03:14;;;;;;;7.13;1.50;;;;;;;17.65;100.00;100644.66;4923226;29;20051;-68
2023/07/25 08:05:42;;;;;;;5.18;1.17;;;;;;;17.66;100.00;100656.06;4947249;29;20400;-68
2023/07/25 08:08:09;;;;;;;;;;;;;;;17.72;100.00;100656.13;4943180;28;20055;-68
2023/07/25 08:10:35;;;;;;;5.07;1.30;;;;;;;17.76;100.00;100660.00;4948495;28;19949;-67
2023/07/25 08:13:02;;;;;;;7.07;1.20;;;;;;;17.81;100.00;100671.88;4948643;28;20058;-68
2023/07/25 08:15:29;;;;;;;3.92;1.50;;;;;;;17.78;100.00;100665.13;4938325;28;20051;-67
2023/07/25 08:17:55;;;;;;;7.07;1.30;;;;;;;17.83;100.00;100668.00;4943898;29;20716;-68
2023/07/25 08:20:21;;;;;;;8.80;1.50;;;;;;;17.84;100.00;100668.84;4946527;29;20051;-67
2023/07/25 08:22:48;;;;;;;6.78;1.30;;;;;;;17.92;100.00;100674.81;4948947;29;20110;-68
2023/07/25 08:25:14;;;;;;;6.38;1.42;;;;;;;17.95;92.74;100674.41;4945232;28;20449;-67
2023/07/25 08:27:41;;;;;;;6.15;1.20;;;;;;;18.08;94.43;100675.47;4945791;28;20057;-68
2023/07/25 08:30:08;;;;;;;4.78;1.05;;;;;;;18.15;95.07;100677.13;4943081;29;20114;-68
2023/07/25 08:32:34;;;;;;;7.25;1.33;;;;;;;18.27;91.51;100682.69;4942877;28;20058;-67
2023/07/25 08:35:01;;;;;;;7.53;1.42;;;;;;;18.35;89.84;100682.50;4946711;29;20064;-68
2023/07/25 08:37:27;;;;;;;6.53;1.40;;;;;;;18.51;92.45;100683.94;4939351;28;20721;-67
2023/07/25 08:39:54;;;;;;;3.78;1.10;;;;;;;18.67;88.32;100679.28;4932872;29;20429;-68
2023/07/25 08:42:24;;;;;;;7.35;1.30;;;;;;;18.95;87.40;100679.94;4932329;29;20077;-68
2023/07/25 08:44:52;;;;;;;3.67;1.05;;;;;;;19.35;81.54;100677.22;4933631;29;20054;-67
2023/07/25 08:47:26;;;;;;;4.60;0.90;;;;;;;19.44;77.12;100675.13;4948961;28;20051;-68
2023/07/25 08:49:56;;;;;;;4.00;1.10;;;;;;;19.74;79.46;100678.16;4949135;28;20711;-67
2023/07/25 08:52:27;;;;;;;7.55;1.10;;;;;;;19.74;76.61;100683.47;4938354;29;20062;-67
2023/07/25 08:54:54;;;;;;;5.63;1.15;;;;;;;19.74;75.94;100685.34;4941927;28;20087;-68
2023/07/25 08:57:21;;;;;;;2.67;1.05;;;;;;;19.80;69.42;100684.50;4940961;28;20115;-68
2023/07/25 08:59:48;;;;;;;4.65;1.20;;;;;;;19.81;73.95;100688.78;4926776;28;20137;-68
2023/07/25 09:02:16;;;;;;;4.55;1.10;;;;;;;19.62;69.82;100685.13;4949007;28;20040;-67
2023/07/25 09:04:45;;;;;;;4.20;1.50;;;;;;;19.29;72.05;100688.69;4948574;29;20568;-67
2023/07/25 09:07:13;;;;;;;3.55;0.85;;;;;;;19.09;77.58;100694.03;4939708;28;20128;-67
2023/07/25 09:09:40;;;;;;;13.02;2.70;;;;;;;18.94;93.40;100693.41;4944234;28;21550;-68
2023/07/25 09:12:07;;;;;;;7.20;1.58;;;;;;;18.87;100.00;100693.41;4936138;28;20525;-67
2023/07/25 09:14:36;;;;;;;6.50;1.25;;;;;;;18.83;100.00;100699.34;4946123;29;20058;-67
2023/07/25 09:17:05;;;;;;;5.40;1.55;;;;;;;18.73;100.00;100695.19;4938911;29;20046;-66
2023/07/25 09:19:32;;;;;;;5.85;1.88;;;;;;;18.69;100.00;100688.66;4942918;29;20070;-67
2023/07/25 09:21:59;;;;;;;6.97;1.37;;;;;;;18.65;100.00;100692.75;4943083;28;20083;-67
2023/07/25 09:24:39;;;;;;;4.85;1.60;;;;;;;18.61;100.00;100704.81;4938447;28;20051;-67
2023/07/25 09:27:16;;;;;;;5.25;1.30;;;;;;;18.64;100.00;100698.25;4936370;29;20062;-67
2023/07/25 09:29:43;;;;;;;3.17;1.20;;;;;;;18.57;99.16;100701.72;4930813;29;20137;-66
2023/07/25 09:32:21;;;;;;;4.63;1.45;;;;;;;18.60;98.46;100707.66;4948231;29;20069;-66
2023/07/25 09:34:58;;;;;;;5.18;1.35;;;;;;;18.73;98.05;100699.72;4943318;29;20507;-66
2023/07/25 09:37:25;;;;;;;4.77;1.10;;;;;;;18.87;94.92;100704.03;4947740;29;20051;-67
2023/07/25 09:39:52;;;;;;;4.65;1.00;;;;;;;19.25;92.85;100702.59;4945451;28;20324;-66
2023/07/25 09:42:23;;;;;;;8.57;1.30;;;;;;;19.66;89.75;100696.16;4936746;28;20070;-66
2023/07/25 09:44:51;;;;;;;4.50;1.05;;;;;;;20.02;78.96;100692.19;4946364;29;20145;-67
2023/07/25 09:47:23;;;;;;;5.03;1.35;;;;;;;20.22;72.60;100690.22;4928798;29;20145;-67
2023/07/25 09:49:51;;;;;;;4.82;1.40;;;;;;;20.59;72.12;100694.94;4947195;28;20051;-67
2023/07/25 09:52:18;;;;;;;4.72;0.90;;;;;;;21.01;73.64;100693.41;4924311;29;20051;-66
2023/07/25 09:54:44;;;;;;;2.10;0.90;;;;;;;21.32;78.64;100692.47;4933518;29;20062;-67
2023/07/25 09:57:11;;;;;;;3.42;0.77;;;;;;;21.24;67.34;100698.09;4939129;28;20134;-67
2023/07/25 09:59:37;;;;;;;4.00;0.90;;;;;;;21.08;69.39;100702.16;4937165;28;20607;-66
2023/07/25 10:02:04;;;;;;;3.45;0.63;;;;;;;20.93;68.49;100697.16;4944444;29;20393;-66
2023/07/25 10:04:36;;;;;;;3.40;0.80;;;;;;;20.58;64.84;100696.78;4937146;28;20150;-66
2023/07/25 10:07:03;;;;;;;2.92;0.80;;;;;;;20.30;64.70;100703.28;4942447;28;20047;-67
2023/07/25 10:09:30;;;;;;;5.57;0.80;;;;;;;20.64;62.76;100703.09;4936654;28;20083;-66
2023/07/25 10:11:56;;;;;;;2.72;0.80;;;;;;;20.84;63.43;100695.00;4940519;29;20047;-66
2023/07/25 10:14:23;;;;;;;2.60;0.88;;;;;;;21.21;63.67;100697.72;4955607;28;20145;-67
2023/07/25 10:16:50;;;;;;;1.20;0.50;;;;;;;21.36;58.10;100692.03;4930507;29;20097;-67
2023/07/25 10:19:18;;;;;;;2.17;0.60;;;;;;;21.54;59.67;100692.06;4936022;29;20059;-68
2023/07/25 10:21:50;;;;;;;1.65;0.70;;;;;;;21.82;58.07;100696.91;4926823;28;20572;-67
2023/07/25 10:24:17;;;;;;;3.63;0.70;;;;;;;22.15;56.54;100697.50;4946592;28;20169;-68
2023/07/25 10:26:57;;;;;;;5.03;0.60;;;;;;;22.41;56.15;100689.16;4935931;28;20416;-67
2023/07/25 10:29:37;;;;;;;1.85;0.70;;;;;;;22.76;52.75;100683.09;4940537;29;20055;-67
2023/07/25 10:32:04;;;;;;;3.20;0.90;;;;;;;23.07;54.49;100690.00;4926240;29;20051;-67
2023/07/25 10:34:59;;;;;;;1.88;0.60;;;;;;;23.16;52.34;100685.09;4934436;29;20047;-67
2023/07/25 10:37:31;;;;;;;2.90;0.93;;;;;;;23.35;53.39;100693.03;4940917;29;20062;-67
2023/07/25 10:40:17;;;;;;;2.67;0.60;;;;;;;23.63;53.60;100695.75;4936856;29;20457;-67
2023/07/25 10:42:52;;;;;;;0.55;0.52;;;;;;;23.20;50.40;100693.47;4936790;29;20062;-67
2023/07/25 10:45:44;;;;;;;3.88;0.80;;;;;;;23.37;50.56;100690.94;4932913;28;20894;-69
2023/07/25 10:48:30;;;;;;;7.03;1.23;;;;;;;23.47;50.73;100693.81;4932498;29;20424;-69
2023/07/25 10:51:00;;;;;;;3.13;0.50;;;;;;;23.77;53.93;100690.94;4930680;28;20492;-68
2023/07/25 10:53:27;;;;;;;2.15;0.60;;;;;;;23.69;48.95;100683.28;4944122;28;20111;-68
2023/07/25 10:56:05;;;;;;;1.70;0.50;;;;;;;23.33;50.05;100687.09;4933906;29;20496;-66
2023/07/25 10:59:08;;;;;;;3.03;0.70;;;;;;;23.39;49.20;100694.97;4936791;29;20051;-66
2023/07/25 11:01:48;;;;;;;2.78;0.82;;;;;;;23.53;48.38;100689.38;4928990;28;20052;-66
2023/07/25 11:04:29;;;;;;;1.27;0.60;;;;;;;23.77;48.12;100685.59;4930395;28;20143;-65
2023/07/25 11:07:11;;;;;;;2.88;0.75;;;;;;;24.09;49.50;100690.53;4940248;28;20428;-67
2023/07/25 11:09:42;;;;;;;2.42;0.73;;;;;;;24.11;47.93;100685.75;4941959;29;20059;-68
2023/07/25 11:12:10;;;;;;;4.60;0.80;;;;;;;24.34;50.22;100687.47;4937092;29;20055;-67
2023/07/25 11:14:40;;;;;;;;;;;;;;;24.38;47.09;100685.94;4938095;28;20477;-68
2023/07/25 11:17:07;;;;;;;4.05;0.70;;;;;;;24.53;48.16;100685.44;4933537;29;20586;-68
2023/07/25 11:19:34;;;;;;;4.25;0.70;;;;;;;24.66;46.21;100687.00;4933260;29;20146;-66
2023/07/25 11:22:07;;;;;;;2.53;0.80;;;;;;;24.53;46.04;100681.94;4947358;28;20058;-66